Costa Atlantica — IBLQ — position and weather

sailwx.info

Track history (hours):
 
Tides and Currents Weather Stations Pressure Air Temp Water Temp Dewpoint Dewpoint Depression Visibility Wind Speed Wind Dir Waves Ship Positions

Costa Atlantica (Italy)

Last reported at 2017-May-28 13:23 UTC. Time now 2017-May-29 11:32 UTC.
Position N 33°16' E 129°18'.

Length 292 m; draft 8 m.

Type: Ship. MMSI: 247645000.

Date/timePositionNaut miles runAvg speedWind from/ knotsBaromVisibWave heightAir tempDewpointWater temp
2017-May-28 13:23N 33°16' E 129°18'2615.5
2017-May-28 11:42N 33°36' E 129°39'372 8.0
2017-May-26 13:17N 31°14' E 122°52'916.5
2017-May-26 12:44N 31°07' E 122°44'615.1
2017-May-26 12:20N 31°05' E 122°38'613.6
2017-May-26 11:54N 31°05' E 122°31'2012.6
2017-May-26 10:17N 31°12' E 122°08'414.6
2017-May-26 10:00N 31°14' E 122°04'714.9
2017-May-26 09:31N 31°15' E 121°56'714.8
2017-May-26 09:01N 31°18' E 121°47'713.0
2017-May-26 08:31N 31°20' E 121°40'612.0
2017-May-26 08:00N 31°23' E 121°34'4 7.2
2017-May-26 07:30N 31°25' E 121°30'0 0.0
2017-May-26 07:00N 31°25' E 121°30'0 0.0
2017-May-26 06:30N 31°25' E 121°30'0 0.0
2017-May-26 06:00N 31°25' E 121°30'0 0.0
2017-May-26 05:29N 31°25' E 121°30'0 0.0
2017-May-26 05:00N 31°25' E 121°30'0 0.0
2017-May-26 04:25N 31°25' E 121°30'0 0.0
2017-May-26 03:57N 31°25' E 121°30'0 0.0
2017-May-26 03:30N 31°25' E 121°30'0 0.0
2017-May-26 03:00N 31°25' E 121°30'0 0.0
2017-May-26 02:29N 31°25' E 121°30'0 0.0
2017-May-26 02:00N 31°25' E 121°30'0 0.0
2017-May-26 01:24N 31°25' E 121°30'0 0.0
2017-May-26 00:57N 31°25' E 121°30'0 0.0
2017-May-26 00:24N 31°25' E 121°30'0 0.0
2017-May-26 00:00N 31°25' E 121°30'0 0.0
2017-May-25 23:24N 31°25' E 121°30'0 0.0
2017-May-25 22:54N 31°25' E 121°30'0 0.0
2017-May-25 22:30N 31°25' E 121°30'0 0.0
2017-May-25 22:00N 31°25' E 121°30'0 0.0
2017-May-25 21:30N 31°25' E 121°30'1 1.5
2017-May-25 21:00N 31°25' E 121°31'5 9.5
2017-May-25 20:30N 31°23' E 121°36'510.6
2017-May-25 20:00N 31°20' E 121°42'4 7.9
2017-May-25 19:30N 31°18' E 121°46'3 6.3
2017-May-25 19:00N 31°17' E 121°49'3 6.9
2017-May-25 18:30N 31°16' E 121°53'4 7.3
2017-May-25 18:00N 31°15' E 121°57'5 9.5
2017-May-25 17:30N 31°14' E 122°03'611.7
2017-May-25 16:57N 31°12' E 122°09'613.8
2017-May-25 16:30N 31°08' E 122°15'612.5
2017-May-25 16:00N 31°06' E 122°22'5 9.6
2017-May-25 15:30N 31°07' E 122°28'713.3
2017-May-25 15:00N 31°13' E 122°31'1110.9
2017-May-25 14:00N 31°19' E 122°42'612.6
2017-May-25 13:30N 31°20' E 122°49'612.8
2017-May-25 13:00N 31°21' E 122°57'713.2
2017-May-25 12:30N 31°22' E 123°04'714.3
2017-May-25 12:00N 31°22' E 123°13'1019.7
2017-May-25 11:30N 31°21' E 123°24'1019.6
2017-May-25 11:00N 31°21' E 123°36'1019.3
2017-May-25 10:31N 31°21' E 123°47'1019.2
2017-May-25 10:00N 31°20' E 123°58'919.2
2017-May-25 09:30N 31°20' E 124°09'918.5
2017-May-25 09:00N 31°20' E 124°21'918.0
2017-May-25 08:30N 31°19' E 124°31'917.8
2017-May-25 08:00N 31°19' E 124°41'917.2
2017-May-25 07:30N 31°19' E 124°51'  
2017-May-22 10:46N 31°13' E 122°06'312.1
2017-May-22 10:30N 31°14' E 122°03'713.7
2017-May-22 10:01N 31°16' E 121°55'714.6
2017-May-22 09:30N 31°18' E 121°47'612.5
2017-May-22 09:00N 31°21' E 121°40'67 2.9
2017-May-21 10:19N 31°22' E 122°58'413.1
2017-May-21 10:00N 31°23' E 123°03'3613.5
2017-May-21 07:21N 31°31' E 123°44'  
Track history (hours):
 
Tides and Currents Weather Stations Pressure Air Temp Water Temp Dewpoint Dewpoint Depression Visibility Wind Speed Wind Dir Waves Ship Positions

Costa Atlantica (Italy)

Last reported at 2017-May-28 13:23 UTC. Time now 2017-May-29 11:32 UTC.
Position N 33°16' E 129°18'.

Length 292 m; draft 8 m.

Type: Ship. MMSI: 247645000.

Date/timePositionNaut miles runAvg speedWind from/ knotsBaromVisibWave heightAir tempDewpointWater temp
2017-May-28 13:23N 33°16' E 129°18'2615.5
2017-May-28 11:42N 33°36' E 129°39'372 8.0
2017-May-26 13:17N 31°14' E 122°52'916.5
2017-May-26 12:44N 31°07' E 122°44'615.1
2017-May-26 12:20N 31°05' E 122°38'613.6
2017-May-26 11:54N 31°05' E 122°31'2012.6
2017-May-26 10:17N 31°12' E 122°08'414.6
2017-May-26 10:00N 31°14' E 122°04'714.9
2017-May-26 09:31N 31°15' E 121°56'714.8
2017-May-26 09:01N 31°18' E 121°47'713.0
2017-May-26 08:31N 31°20' E 121°40'612.0
2017-May-26 08:00N 31°23' E 121°34'4 7.2
2017-May-26 07:30N 31°25' E 121°30'0 0.0
2017-May-26 07:00N 31°25' E 121°30'0 0.0
2017-May-26 06:30N 31°25' E 121°30'0 0.0
2017-May-26 06:00N 31°25' E 121°30'0 0.0
2017-May-26 05:29N 31°25' E 121°30'0 0.0
2017-May-26 05:00N 31°25' E 121°30'0 0.0
2017-May-26 04:25N 31°25' E 121°30'0 0.0
2017-May-26 03:57N 31°25' E 121°30'0 0.0
2017-May-26 03:30N 31°25' E 121°30'0 0.0
2017-May-26 03:00N 31°25' E 121°30'0 0.0
2017-May-26 02:29N 31°25' E 121°30'0 0.0
2017-May-26 02:00N 31°25' E 121°30'0 0.0
2017-May-26 01:24N 31°25' E 121°30'0 0.0
2017-May-26 00:57N 31°25' E 121°30'0 0.0
2017-May-26 00:24N 31°25' E 121°30'0 0.0
2017-May-26 00:00N 31°25' E 121°30'0 0.0
2017-May-25 23:24N 31°25' E 121°30'0 0.0
2017-May-25 22:54N 31°25' E 121°30'0 0.0
2017-May-25 22:30N 31°25' E 121°30'0 0.0
2017-May-25 22:00N 31°25' E 121°30'0 0.0
2017-May-25 21:30N 31°25' E 121°30'1 1.5
2017-May-25 21:00N 31°25' E 121°31'5 9.5
2017-May-25 20:30N 31°23' E 121°36'510.6
2017-May-25 20:00N 31°20' E 121°42'4 7.9
2017-May-25 19:30N 31°18' E 121°46'3 6.3
2017-May-25 19:00N 31°17' E 121°49'3 6.9
2017-May-25 18:30N 31°16' E 121°53'4 7.3
2017-May-25 18:00N 31°15' E 121°57'5 9.5
2017-May-25 17:30N 31°14' E 122°03'611.7
2017-May-25 16:57N 31°12' E 122°09'613.8
2017-May-25 16:30N 31°08' E 122°15'612.5
2017-May-25 16:00N 31°06' E 122°22'5 9.6
2017-May-25 15:30N 31°07' E 122°28'713.3
2017-May-25 15:00N 31°13' E 122°31'1110.9
2017-May-25 14:00N 31°19' E 122°42'612.6
2017-May-25 13:30N 31°20' E 122°49'612.8
2017-May-25 13:00N 31°21' E 122°57'713.2
2017-May-25 12:30N 31°22' E 123°04'714.3
2017-May-25 12:00N 31°22' E 123°13'1019.7
2017-May-25 11:30N 31°21' E 123°24'1019.6
2017-May-25 11:00N 31°21' E 123°36'1019.3
2017-May-25 10:31N 31°21' E 123°47'1019.2
2017-May-25 10:00N 31°20' E 123°58'919.2
2017-May-25 09:30N 31°20' E 124°09'918.5
2017-May-25 09:00N 31°20' E 124°21'918.0
2017-May-25 08:30N 31°19' E 124°31'917.8
2017-May-25 08:00N 31°19' E 124°41'917.2
2017-May-25 07:30N 31°19' E 124°51'  
2017-May-22 10:46N 31°13' E 122°06'312.1
2017-May-22 10:30N 31°14' E 122°03'713.7
2017-May-22 10:01N 31°16' E 121°55'714.6
2017-May-22 09:30N 31°18' E 121°47'612.5
2017-May-22 09:00N 31°21' E 121°40'67 2.9
2017-May-21 10:19N 31°22' E 122°58'413.1
2017-May-21 10:00N 31°23' E 123°03'3613.5
2017-May-21 07:21N 31°31' E 123°44'  

Dump ship's entire track history